sensor_id;sensor_type;location;lat;lon;timestamp;temperature;humidity
44433;DHT22;30136;50.600;4.608;2022-10-16T00:00:54;25.70;61.70
44433;DHT22;30136;50.600;4.608;2022-10-16T00:01:55;25.70;61.70
44433;DHT22;30136;50.600;4.608;2022-10-16T00:02:56;25.70;61.80
44433;DHT22;30136;50.600;4.608;2022-10-16T00:03:58;25.70;61.80
44433;DHT22;30136;50.600;4.608;2022-10-16T00:05:00;25.70;61.80
44433;DHT22;30136;50.600;4.608;2022-10-16T00:06:01;25.70;61.90
44433;DHT22;30136;50.600;4.608;2022-10-16T00:07:03;25.60;61.80
44433;DHT22;30136;50.600;4.608;2022-10-16T00:08:04;25.60;61.80
44433;DHT22;30136;50.600;4.608;2022-10-16T00:09:05;25.60;61.80
44433;DHT22;30136;50.600;4.608;2022-10-16T00:10:06;25.60;61.80
44433;DHT22;30136;50.600;4.608;2022-10-16T00:12:16;25.60;62.00
44433;DHT22;30136;50.600;4.608;2022-10-16T00:13:17;25.60;62.00
44433;DHT22;30136;50.600;4.608;2022-10-16T00:14:20;25.60;62.00
44433;DHT22;30136;50.600;4.608;2022-10-16T00:15:20;25.60;62.00
44433;DHT22;30136;50.600;4.608;2022-10-16T00:16:22;25.60;62.00
44433;DHT22;30136;50.600;4.608;2022-10-16T00:17:23;25.60;62.00
44433;DHT22;30136;50.600;4.608;2022-10-16T00:18:24;25.60;62.00
44433;DHT22;30136;50.600;4.608;2022-10-16T00:19:25;25.60;62.00
44433;DHT22;30136;50.600;4.608;2022-10-16T00:20:26;25.60;62.20
44433;DHT22;30136;50.600;4.608;2022-10-16T00:21:28;25.50;62.20
44433;DHT22;30136;50.600;4.608;2022-10-16T00:22:30;25.50;62.20
44433;DHT22;30136;50.600;4.608;2022-10-16T00:23:31;25.50;62.20
44433;DHT22;30136;50.600;4.608;2022-10-16T00:24:32;25.60;62.20
44433;DHT22;30136;50.600;4.608;2022-10-16T00:25:33;25.50;62.10
44433;DHT22;30136;50.600;4.608;2022-10-16T00:26:34;25.50;62.10
44433;DHT22;30136;50.600;4.608;2022-10-16T00:27:36;25.50;62.20
44433;DHT22;30136;50.600;4.608;2022-10-16T00:28:37;25.50;62.10
44433;DHT22;30136;50.600;4.608;2022-10-16T00:29:38;25.50;62.20
44433;DHT22;30136;50.600;4.608;2022-10-16T00:30:39;25.50;62.20
44433;DHT22;30136;50.600;4.608;2022-10-16T00:31:40;25.60;62.30
44433;DHT22;30136;50.600;4.608;2022-10-16T00:32:41;25.50;62.10
44433;DHT22;30136;50.600;4.608;2022-10-16T00:33:42;25.50;62.00
44433;DHT22;30136;50.600;4.608;2022-10-16T00:34:43;25.50;61.90
44433;DHT22;30136;50.600;4.608;2022-10-16T00:35:44;25.50;61.90
44433;DHT22;30136;50.600;4.608;2022-10-16T00:36:45;25.50;61.90
44433;DHT22;30136;50.600;4.608;2022-10-16T00:37:46;25.50;62.00
44433;DHT22;30136;50.600;4.608;2022-10-16T00:38:49;25.50;62.00
44433;DHT22;30136;50.600;4.608;2022-10-16T00:39:53;25.50;62.00
44433;DHT22;30136;50.600;4.608;2022-10-16T00:40:54;25.50;62.00
44433;DHT22;30136;50.600;4.608;2022-10-16T00:41:55;25.50;62.10
44433;DHT22;30136;50.600;4.608;2022-10-16T00:42:56;25.50;62.00
44433;DHT22;30136;50.600;4.608;2022-10-16T00:44:03;25.50;62.10
44433;DHT22;30136;50.600;4.608;2022-10-16T00:45:05;25.50;62.00
44433;DHT22;30136;50.600;4.608;2022-10-16T00:46:39;25.50;62.10
44433;DHT22;30136;50.600;4.608;2022-10-16T00:47:46;25.50;62.20
44433;DHT22;30136;50.600;4.608;2022-10-16T00:50:22;25.50;62.20
44433;DHT22;30136;50.600;4.608;2022-10-16T00:51:33;25.50;62.30
44433;DHT22;30136;50.600;4.608;2022-10-16T00:52:37;25.50;62.30
44433;DHT22;30136;50.600;4.608;2022-10-16T00:53:40;25.50;62.30
44433;DHT22;30136;50.600;4.608;2022-10-16T00:54:41;25.50;62.30
44433;DHT22;30136;50.600;4.608;2022-10-16T00:55:42;25.50;62.10
44433;DHT22;30136;50.600;4.608;2022-10-16T00:56:44;25.50;62.10
44433;DHT22;30136;50.600;4.608;2022-10-16T00:57:47;25.50;62.20
44433;DHT22;30136;50.600;4.608;2022-10-16T00:58:49;25.50;62.20
44433;DHT22;30136;50.600;4.608;2022-10-16T00:59:49;25.50;62.20
44433;DHT22;30136;50.600;4.608;2022-10-16T01:00:50;25.50;62.10
44433;DHT22;30136;50.600;4.608;2022-10-16T01:01:52;25.50;62.20
44433;DHT22;30136;50.600;4.608;2022-10-16T01:03:00;25.50;62.10
44433;DHT22;30136;50.600;4.608;2022-10-16T01:04:01;25.50;62.20
44433;DHT22;30136;50.600;4.608;2022-10-16T01:05:03;25.50;62.30
44433;DHT22;30136;50.600;4.608;2022-10-16T01:08:12;25.50;62.30
44433;DHT22;30136;50.600;4.608;2022-10-16T01:09:29;25.50;62.40
44433;DHT22;30136;50.600;4.608;2022-10-16T01:15:25;25.50;62.40
44433;DHT22;30136;50.600;4.608;2022-10-16T01:16:43;25.50;62.50
44433;DHT22;30136;50.600;4.608;2022-10-16T01:19:44;25.40;62.40
44433;DHT22;30136;50.600;4.608;2022-10-16T01:20:54;25.40;62.50
44433;DHT22;30136;50.600;4.608;2022-10-16T01:22:00;25.40;62.50
44433;DHT22;30136;50.600;4.608;2022-10-16T01:23:27;25.40;62.60
44433;DHT22;30136;50.600;4.608;2022-10-16T01:24:39;25.40;62.60
44433;DHT22;30136;50.600;4.608;2022-10-16T01:27:35;25.40;62.80
44433;DHT22;30136;50.600;4.608;2022-10-16T01:29:53;25.40;62.80
44433;DHT22;30136;50.600;4.608;2022-10-16T01:30:58;25.40;62.80
44433;DHT22;30136;50.600;4.608;2022-10-16T01:32:08;25.40;62.60
44433;DHT22;30136;50.600;4.608;2022-10-16T01:33:17;25.40;62.70
44433;DHT22;30136;50.600;4.608;2022-10-16T01:34:25;25.40;62.60
44433;DHT22;30136;50.600;4.608;2022-10-16T01:35:36;25.30;62.60
44433;DHT22;30136;50.600;4.608;2022-10-16T01:36:46;25.30;62.70
44433;DHT22;30136;50.600;4.608;2022-10-16T01:38:00;25.30;62.60
44433;DHT22;30136;50.600;4.608;2022-10-16T01:39:27;25.30;62.70
44433;DHT22;30136;50.600;4.608;2022-10-16T01:40:33;25.30;62.50
44433;DHT22;30136;50.600;4.608;2022-10-16T01:41:48;25.30;62.60
44433;DHT22;30136;50.600;4.608;2022-10-16T01:42:53;25.40;62.40
44433;DHT22;30136;50.600;4.608;2022-10-16T01:44:05;25.30;62.40
44433;DHT22;30136;50.600;4.608;2022-10-16T01:45:12;25.30;62.40
44433;DHT22;30136;50.600;4.608;2022-10-16T01:46:17;25.30;62.40
44433;DHT22;30136;50.600;4.608;2022-10-16T01:47:23;25.30;63.10
44433;DHT22;30136;50.600;4.608;2022-10-16T01:48:24;25.30;62.30
44433;DHT22;30136;50.600;4.608;2022-10-16T01:49:29;25.40;62.60
44433;DHT22;30136;50.600;4.608;2022-10-16T01:50:37;25.40;62.40
44433;DHT22;30136;50.600;4.608;2022-10-16T01:51:42;25.30;62.50
44433;DHT22;30136;50.600;4.608;2022-10-16T01:52:48;25.30;62.40
44433;DHT22;30136;50.600;4.608;2022-10-16T01:53:53;25.30;62.40
44433;DHT22;30136;50.600;4.608;2022-10-16T01:54:57;25.30;62.40
44433;DHT22;30136;50.600;4.608;2022-10-16T01:56:00;25.30;63.10
44433;DHT22;30136;50.600;4.608;2022-10-16T01:57:05;25.30;62.30
44433;DHT22;30136;50.600;4.608;2022-10-16T01:58:08;25.30;62.40
44433;DHT22;30136;50.600;4.608;2022-10-16T01:59:12;25.30;62.40
44433;DHT22;30136;50.600;4.608;2022-10-16T02:00:16;25.40;62.50
44433;DHT22;30136;50.600;4.608;2022-10-16T02:01:20;25.40;62.40
44433;DHT22;30136;50.600;4.608;2022-10-16T02:02:23;25.30;62.20
44433;DHT22;30136;50.600;4.608;2022-10-16T02:03:27;25.30;62.60
44433;DHT22;30136;50.600;4.608;2022-10-16T02:04:34;25.30;63.00
44433;DHT22;30136;50.600;4.608;2022-10-16T02:05:57;25.40;62.60
44433;DHT22;30136;50.600;4.608;2022-10-16T02:06:59;25.40;62.10
44433;DHT22;30136;50.600;4.608;2022-10-16T02:08:00;25.40;62.10
44433;DHT22;30136;50.600;4.608;2022-10-16T02:09:01;25.30;62.10
44433;DHT22;30136;50.600;4.608;2022-10-16T02:10:02;25.30;63.10
44433;DHT22;30136;50.600;4.608;2022-10-16T02:11:04;25.30;62.20
44433;DHT22;30136;50.600;4.608;2022-10-16T02:12:24;25.40;62.60
44433;DHT22;30136;50.600;4.608;2022-10-16T02:14:46;25.30;62.20
44433;DHT22;30136;50.600;4.608;2022-10-16T02:15:46;25.30;62.40
44433;DHT22;30136;50.600;4.608;2022-10-16T02:16:47;25.30;62.30
44433;DHT22;30136;50.600;4.608;2022-10-16T02:17:48;25.30;62.30
44433;DHT22;30136;50.600;4.608;2022-10-16T02:18:49;25.30;62.50
44433;DHT22;30136;50.600;4.608;2022-10-16T02:19:52;25.30;62.40
44433;DHT22;30136;50.600;4.608;2022-10-16T02:21:40;25.30;62.50
44433;DHT22;30136;50.600;4.608;2022-10-16T02:22:46;25.30;62.60
44433;DHT22;30136;50.600;4.608;2022-10-16T02:25:27;25.30;62.50
44433;DHT22;30136;50.600;4.608;2022-10-16T02:26:46;25.30;62.30
44433;DHT22;30136;50.600;4.608;2022-10-16T02:28:00;25.30;62.50
44433;DHT22;30136;50.600;4.608;2022-10-16T02:29:07;25.30;62.30
44433;DHT22;30136;50.600;4.608;2022-10-16T02:30:47;25.30;62.40
44433;DHT22;30136;50.600;4.608;2022-10-16T02:31:56;25.30;62.30
44433;DHT22;30136;50.600;4.608;2022-10-16T02:33:01;25.30;62.20
44433;DHT22;30136;50.600;4.608;2022-10-16T02:34:04;25.40;62.30
44433;DHT22;30136;50.600;4.608;2022-10-16T02:35:07;25.30;62.20
44433;DHT22;30136;50.600;4.608;2022-10-16T02:36:09;25.30;62.20
44433;DHT22;30136;50.600;4.608;2022-10-16T02:37:11;25.30;62.20
44433;DHT22;30136;50.600;4.608;2022-10-16T02:38:14;25.30;62.20
44433;DHT22;30136;50.600;4.608;2022-10-16T02:39:16;25.30;62.20
44433;DHT22;30136;50.600;4.608;2022-10-16T02:40:18;25.30;62.10
44433;DHT22;30136;50.600;4.608;2022-10-16T02:41:20;25.30;62.20
44433;DHT22;30136;50.600;4.608;2022-10-16T02:42:26;25.30;62.20
44433;DHT22;30136;50.600;4.608;2022-10-16T02:43:28;25.30;62.40
44433;DHT22;30136;50.600;4.608;2022-10-16T02:44:29;25.30;62.40
44433;DHT22;30136;50.600;4.608;2022-10-16T02:45:31;25.30;62.50
44433;DHT22;30136;50.600;4.608;2022-10-16T02:46:32;25.30;62.50
44433;DHT22;30136;50.600;4.608;2022-10-16T02:47:33;25.30;62.50
44433;DHT22;30136;50.600;4.608;2022-10-16T02:48:34;25.30;62.50
44433;DHT22;30136;50.600;4.608;2022-10-16T02:49:35;25.30;62.50
44433;DHT22;30136;50.600;4.608;2022-10-16T02:50:36;25.30;62.40
44433;DHT22;30136;50.600;4.608;2022-10-16T02:51:37;25.30;62.40
44433;DHT22;30136;50.600;4.608;2022-10-16T02:52:38;25.30;62.40
44433;DHT22;30136;50.600;4.608;2022-10-16T02:53:39;25.30;62.40
44433;DHT22;30136;50.600;4.608;2022-10-16T02:54:39;25.30;62.60
44433;DHT22;30136;50.600;4.608;2022-10-16T02:55:40;25.30;63.10
44433;DHT22;30136;50.600;4.608;2022-10-16T02:56:42;25.30;62.40
44433;DHT22;30136;50.600;4.608;2022-10-16T02:57:43;25.30;62.60
44433;DHT22;30136;50.600;4.608;2022-10-16T02:58:43;25.30;62.60
44433;DHT22;30136;50.600;4.608;2022-10-16T02:59:45;25.20;62.50
44433;DHT22;30136;50.600;4.608;2022-10-16T03:00:46;25.30;62.70
44433;DHT22;30136;50.600;4.608;2022-10-16T03:01:46;25.30;62.50
44433;DHT22;30136;50.600;4.608;2022-10-16T03:02:47;25.30;63.30
44433;DHT22;30136;50.600;4.608;2022-10-16T03:03:48;25.30;62.40
44433;DHT22;30136;50.600;4.608;2022-10-16T03:04:49;25.30;62.50
44433;DHT22;30136;50.600;4.608;2022-10-16T03:05:50;25.30;62.40
44433;DHT22;30136;50.600;4.608;2022-10-16T03:06:51;25.30;62.40
44433;DHT22;30136;50.600;4.608;2022-10-16T03:07:52;25.30;62.40
44433;DHT22;30136;50.600;4.608;2022-10-16T03:08:53;25.30;62.40
44433;DHT22;30136;50.600;4.608;2022-10-16T03:09:54;25.30;62.40
44433;DHT22;30136;50.600;4.608;2022-10-16T03:10:55;25.30;62.50
44433;DHT22;30136;50.600;4.608;2022-10-16T03:11:56;25.30;62.50
44433;DHT22;30136;50.600;4.608;2022-10-16T03:12:57;25.30;62.50
44433;DHT22;30136;50.600;4.608;2022-10-16T03:13:58;25.30;62.50
44433;DHT22;30136;50.600;4.608;2022-10-16T03:14:59;25.30;62.60
44433;DHT22;30136;50.600;4.608;2022-10-16T03:16:00;25.30;62.60
44433;DHT22;30136;50.600;4.608;2022-10-16T03:17:00;25.30;62.70
44433;DHT22;30136;50.600;4.608;2022-10-16T03:18:01;25.30;62.70
44433;DHT22;30136;50.600;4.608;2022-10-16T03:19:02;25.20;62.60
44433;DHT22;30136;50.600;4.608;2022-10-16T03:20:04;25.30;62.70
44433;DHT22;30136;50.600;4.608;2022-10-16T03:21:05;25.30;62.80
44433;DHT22;30136;50.600;4.608;2022-10-16T03:22:06;25.30;62.50
44433;DHT22;30136;50.600;4.608;2022-10-16T03:23:07;25.30;62.60
44433;DHT22;30136;50.600;4.608;2022-10-16T03:24:08;25.30;62.60
44433;DHT22;30136;50.600;4.608;2022-10-16T03:25:09;25.20;62.50
44433;DHT22;30136;50.600;4.608;2022-10-16T03:26:10;25.20;62.60
44433;DHT22;30136;50.600;4.608;2022-10-16T03:27:10;25.20;62.70
44433;DHT22;30136;50.600;4.608;2022-10-16T03:28:11;25.20;62.70
44433;DHT22;30136;50.600;4.608;2022-10-16T03:29:12;25.20;62.60
44433;DHT22;30136;50.600;4.608;2022-10-16T03:30:13;25.20;62.60
44433;DHT22;30136;50.600;4.608;2022-10-16T03:31:14;25.20;62.80
44433;DHT22;30136;50.600;4.608;2022-10-16T03:32:15;25.20;62.70
44433;DHT22;30136;50.600;4.608;2022-10-16T03:33:16;25.20;62.70
44433;DHT22;30136;50.600;4.608;2022-10-16T03:34:17;25.20;62.60
44433;DHT22;30136;50.600;4.608;2022-10-16T03:35:18;25.20;62.80
44433;DHT22;30136;50.600;4.608;2022-10-16T03:36:18;25.30;63.00
44433;DHT22;30136;50.600;4.608;2022-10-16T03:37:19;25.20;62.80
44433;DHT22;30136;50.600;4.608;2022-10-16T03:38:21;25.20;63.60
44433;DHT22;30136;50.600;4.608;2022-10-16T03:39:22;25.30;62.80
44433;DHT22;30136;50.600;4.608;2022-10-16T03:40:23;25.20;62.90
44433;DHT22;30136;50.600;4.608;2022-10-16T03:41:24;25.20;63.00
44433;DHT22;30136;50.600;4.608;2022-10-16T03:42:25;25.20;62.90
44433;DHT22;30136;50.600;4.608;2022-10-16T03:43:26;25.20;62.70
44433;DHT22;30136;50.600;4.608;2022-10-16T03:44:27;25.20;62.80
44433;DHT22;30136;50.600;4.608;2022-10-16T03:45:27;25.30;62.80
44433;DHT22;30136;50.600;4.608;2022-10-16T03:46:28;25.20;62.60
44433;DHT22;30136;50.600;4.608;2022-10-16T03:47:30;25.20;62.80
44433;DHT22;30136;50.600;4.608;2022-10-16T03:48:33;25.20;62.70
44433;DHT22;30136;50.600;4.608;2022-10-16T03:49:34;25.20;62.70
44433;DHT22;30136;50.600;4.608;2022-10-16T03:50:35;25.20;62.90
44433;DHT22;30136;50.600;4.608;2022-10-16T03:51:36;25.20;63.00
44433;DHT22;30136;50.600;4.608;2022-10-16T03:52:37;25.20;62.90
44433;DHT22;30136;50.600;4.608;2022-10-16T03:53:38;25.20;62.90
44433;DHT22;30136;50.600;4.608;2022-10-16T03:54:38;25.20;63.00
44433;DHT22;30136;50.600;4.608;2022-10-16T03:55:41;25.20;62.90
44433;DHT22;30136;50.600;4.608;2022-10-16T03:56:42;25.20;63.00
44433;DHT22;30136;50.600;4.608;2022-10-16T03:57:43;25.20;63.70
44433;DHT22;30136;50.600;4.608;2022-10-16T03:58:44;25.20;63.10
44433;DHT22;30136;50.600;4.608;2022-10-16T03:59:45;25.20;63.00
44433;DHT22;30136;50.600;4.608;2022-10-16T04:00:46;25.20;63.00
44433;DHT22;30136;50.600;4.608;2022-10-16T04:01:50;25.20;63.00
44433;DHT22;30136;50.600;4.608;2022-10-16T04:02:51;25.20;62.90
44433;DHT22;30136;50.600;4.608;2022-10-16T04:03:52;25.10;62.90
44433;DHT22;30136;50.600;4.608;2022-10-16T04:04:52;25.20;63.00
44433;DHT22;30136;50.600;4.608;2022-10-16T04:05:53;25.20;63.00
44433;DHT22;30136;50.600;4.608;2022-10-16T04:06:54;25.20;62.90
44433;DHT22;30136;50.600;4.608;2022-10-16T04:07:55;25.20;62.90
44433;DHT22;30136;50.600;4.608;2022-10-16T04:08:56;25.20;63.00
44433;DHT22;30136;50.600;4.608;2022-10-16T04:09:57;25.20;62.90
44433;DHT22;30136;50.600;4.608;2022-10-16T04:10:59;25.20;63.00
44433;DHT22;30136;50.600;4.608;2022-10-16T04:12:00;25.20;63.10
44433;DHT22;30136;50.600;4.608;2022-10-16T04:13:01;25.20;63.10
44433;DHT22;30136;50.600;4.608;2022-10-16T04:14:01;25.20;63.00
44433;DHT22;30136;50.600;4.608;2022-10-16T04:15:03;25.10;63.00
44433;DHT22;30136;50.600;4.608;2022-10-16T04:16:04;25.20;63.10
44433;DHT22;30136;50.600;4.608;2022-10-16T04:17:05;25.10;63.10
44433;DHT22;30136;50.600;4.608;2022-10-16T04:18:06;25.10;63.00
44433;DHT22;30136;50.600;4.608;2022-10-16T04:19:07;25.10;62.90
44433;DHT22;30136;50.600;4.608;2022-10-16T04:20:08;25.10;62.90
44433;DHT22;30136;50.600;4.608;2022-10-16T04:21:08;25.10;62.90
44433;DHT22;30136;50.600;4.608;2022-10-16T04:22:09;25.20;63.00
44433;DHT22;30136;50.600;4.608;2022-10-16T04:23:10;25.10;63.10
44433;DHT22;30136;50.600;4.608;2022-10-16T04:24:11;25.10;63.00
44433;DHT22;30136;50.600;4.608;2022-10-16T04:25:12;25.10;63.10
44433;DHT22;30136;50.600;4.608;2022-10-16T04:26:13;25.20;63.10
44433;DHT22;30136;50.600;4.608;2022-10-16T04:27:14;25.10;63.10
44433;DHT22;30136;50.600;4.608;2022-10-16T04:28:15;25.10;63.00
44433;DHT22;30136;50.600;4.608;2022-10-16T04:29:16;25.10;63.20
44433;DHT22;30136;50.600;4.608;2022-10-16T04:30:16;25.10;63.10
44433;DHT22;30136;50.600;4.608;2022-10-16T04:31:17;25.10;63.10
44433;DHT22;30136;50.600;4.608;2022-10-16T04:32:18;25.10;63.00
44433;DHT22;30136;50.600;4.608;2022-10-16T04:33:19;25.10;63.00
44433;DHT22;30136;50.600;4.608;2022-10-16T04:34:20;25.10;63.20
44433;DHT22;30136;50.600;4.608;2022-10-16T04:35:21;25.10;63.30
44433;DHT22;30136;50.600;4.608;2022-10-16T04:36:22;25.10;63.30
44433;DHT22;30136;50.600;4.608;2022-10-16T04:37:27;25.10;63.30
44433;DHT22;30136;50.600;4.608;2022-10-16T04:38:28;25.10;63.20
44433;DHT22;30136;50.600;4.608;2022-10-16T04:39:29;25.10;63.40
44433;DHT22;30136;50.600;4.608;2022-10-16T04:40:30;25.10;63.20
44433;DHT22;30136;50.600;4.608;2022-10-16T04:41:33;25.10;63.40
44433;DHT22;30136;50.600;4.608;2022-10-16T04:42:34;25.10;63.60
44433;DHT22;30136;50.600;4.608;2022-10-16T04:43:35;25.10;63.30
44433;DHT22;30136;50.600;4.608;2022-10-16T04:44:36;25.10;63.00
44433;DHT22;30136;50.600;4.608;2022-10-16T04:45:36;25.10;62.80
44433;DHT22;30136;50.600;4.608;2022-10-16T04:46:37;25.10;63.00
44433;DHT22;30136;50.600;4.608;2022-10-16T04:47:38;25.10;62.60
44433;DHT22;30136;50.600;4.608;2022-10-16T04:48:39;25.10;62.70
44433;DHT22;30136;50.600;4.608;2022-10-16T04:49:40;25.10;62.70
44433;DHT22;30136;50.600;4.608;2022-10-16T04:50:41;25.10;62.30
44433;DHT22;30136;50.600;4.608;2022-10-16T04:51:42;25.10;62.50
44433;DHT22;30136;50.600;4.608;2022-10-16T04:52:43;25.10;62.90
44433;DHT22;30136;50.600;4.608;2022-10-16T04:53:43;25.10;62.90
44433;DHT22;30136;50.600;4.608;2022-10-16T04:54:44;25.10;63.10
44433;DHT22;30136;50.600;4.608;2022-10-16T04:55:45;25.10;63.30
44433;DHT22;30136;50.600;4.608;2022-10-16T04:56:46;25.10;63.00
44433;DHT22;30136;50.600;4.608;2022-10-16T04:57:48;25.00;63.10
44433;DHT22;30136;50.600;4.608;2022-10-16T04:58:49;25.00;63.30
44433;DHT22;30136;50.600;4.608;2022-10-16T04:59:49;25.00;63.30
44433;DHT22;30136;50.600;4.608;2022-10-16T05:00:50;25.10;63.30
44433;DHT22;30136;50.600;4.608;2022-10-16T05:01:51;25.00;63.30
44433;DHT22;30136;50.600;4.608;2022-10-16T05:02:52;25.10;63.40
44433;DHT22;30136;50.600;4.608;2022-10-16T05:03:53;25.00;63.30
44433;DHT22;30136;50.600;4.608;2022-10-16T05:04:54;25.10;63.50
44433;DHT22;30136;50.600;4.608;2022-10-16T05:05:55;25.00;63.30
44433;DHT22;30136;50.600;4.608;2022-10-16T05:06:57;25.00;63.40
44433;DHT22;30136;50.600;4.608;2022-10-16T05:07:57;25.00;63.40
44433;DHT22;30136;50.600;4.608;2022-10-16T05:08:58;25.00;63.40
44433;DHT22;30136;50.600;4.608;2022-10-16T05:09:59;25.00;63.30
44433;DHT22;30136;50.600;4.608;2022-10-16T05:11:00;25.00;63.40
44433;DHT22;30136;50.600;4.608;2022-10-16T05:12:02;25.00;63.30
44433;DHT22;30136;50.600;4.608;2022-10-16T05:13:03;25.00;63.60
44433;DHT22;30136;50.600;4.608;2022-10-16T05:14:04;25.00;63.60
44433;DHT22;30136;50.600;4.608;2022-10-16T05:15:06;25.00;63.30
44433;DHT22;30136;50.600;4.608;2022-10-16T05:16:07;25.00;63.30
44433;DHT22;30136;50.600;4.608;2022-10-16T05:17:08;25.00;63.30
44433;DHT22;30136;50.600;4.608;2022-10-16T05:18:09;25.00;63.60
44433;DHT22;30136;50.600;4.608;2022-10-16T05:19:10;25.00;63.70
44433;DHT22;30136;50.600;4.608;2022-10-16T05:20:11;25.00;63.50
44433;DHT22;30136;50.600;4.608;2022-10-16T05:21:12;25.00;63.30
44433;DHT22;30136;50.600;4.608;2022-10-16T05:22:13;25.00;63.40
44433;DHT22;30136;50.600;4.608;2022-10-16T05:23:14;25.00;63.70
44433;DHT22;30136;50.600;4.608;2022-10-16T05:24:15;25.00;63.50
44433;DHT22;30136;50.600;4.608;2022-10-16T05:25:16;25.00;63.40
44433;DHT22;30136;50.600;4.608;2022-10-16T05:26:17;25.00;63.50
44433;DHT22;30136;50.600;4.608;2022-10-16T05:27:18;25.00;63.60
44433;DHT22;30136;50.600;4.608;2022-10-16T05:28:19;25.00;63.70
44433;DHT22;30136;50.600;4.608;2022-10-16T05:29:20;25.00;64.20
44433;DHT22;30136;50.600;4.608;2022-10-16T05:30:21;25.00;63.50
44433;DHT22;30136;50.600;4.608;2022-10-16T05:31:22;25.00;63.50
44433;DHT22;30136;50.600;4.608;2022-10-16T05:32:23;25.00;63.50
44433;DHT22;30136;50.600;4.608;2022-10-16T05:33:25;25.00;63.60
44433;DHT22;30136;50.600;4.608;2022-10-16T05:34:26;25.00;63.70
44433;DHT22;30136;50.600;4.608;2022-10-16T05:35:27;25.00;63.90
44433;DHT22;30136;50.600;4.608;2022-10-16T05:36:28;25.00;63.90
44433;DHT22;30136;50.600;4.608;2022-10-16T05:37:29;25.10;63.90
44433;DHT22;30136;50.600;4.608;2022-10-16T05:38:30;25.10;63.90
44433;DHT22;30136;50.600;4.608;2022-10-16T05:39:30;25.10;63.90
44433;DHT22;30136;50.600;4.608;2022-10-16T05:40:31;25.10;63.90
44433;DHT22;30136;50.600;4.608;2022-10-16T05:41:32;25.10;63.80
44433;DHT22;30136;50.600;4.608;2022-10-16T05:42:33;25.20;63.70
44433;DHT22;30136;50.600;4.608;2022-10-16T05:43:34;25.10;63.50
44433;DHT22;30136;50.600;4.608;2022-10-16T05:44:35;25.20;63.40
44433;DHT22;30136;50.600;4.608;2022-10-16T05:45:35;25.20;63.30
44433;DHT22;30136;50.600;4.608;2022-10-16T05:46:36;25.20;63.20
44433;DHT22;30136;50.600;4.608;2022-10-16T05:47:37;25.20;62.90
44433;DHT22;30136;50.600;4.608;2022-10-16T05:48:38;25.20;62.50
44433;DHT22;30136;50.600;4.608;2022-10-16T05:49:39;25.30;62.70
44433;DHT22;30136;50.600;4.608;2022-10-16T05:50:40;25.30;62.50
44433;DHT22;30136;50.600;4.608;2022-10-16T05:51:41;25.20;62.50
44433;DHT22;30136;50.600;4.608;2022-10-16T05:52:42;25.30;62.50
44433;DHT22;30136;50.600;4.608;2022-10-16T05:53:43;25.20;62.50
44433;DHT22;30136;50.600;4.608;2022-10-16T05:54:44;25.20;62.50
44433;DHT22;30136;50.600;4.608;2022-10-16T05:55:51;25.20;62.20
44433;DHT22;30136;50.600;4.608;2022-10-16T05:56:53;25.20;62.80
44433;DHT22;30136;50.600;4.608;2022-10-16T05:57:54;25.10;62.80
44433;DHT22;30136;50.600;4.608;2022-10-16T05:58:55;25.20;62.70
44433;DHT22;30136;50.600;4.608;2022-10-16T05:59:56;25.20;62.70
44433;DHT22;30136;50.600;4.608;2022-10-16T06:00:59;25.20;62.60
44433;DHT22;30136;50.600;4.608;2022-10-16T06:02:01;25.20;62.50
44433;DHT22;30136;50.600;4.608;2022-10-16T06:03:02;25.20;62.50
44433;DHT22;30136;50.600;4.608;2022-10-16T06:04:03;25.30;62.50
44433;DHT22;30136;50.600;4.608;2022-10-16T06:05:04;25.30;62.40
44433;DHT22;30136;50.600;4.608;2022-10-16T06:06:12;25.30;62.40
44433;DHT22;30136;50.600;4.608;2022-10-16T06:07:15;25.30;62.30
44433;DHT22;30136;50.600;4.608;2022-10-16T06:08:16;25.30;62.20
44433;DHT22;30136;50.600;4.608;2022-10-16T06:09:17;25.40;62.20
44433;DHT22;30136;50.600;4.608;2022-10-16T06:10:18;25.40;62.10
44433;DHT22;30136;50.600;4.608;2022-10-16T06:11:22;25.40;62.30
44433;DHT22;30136;50.600;4.608;2022-10-16T06:12:23;25.40;62.10
44433;DHT22;30136;50.600;4.608;2022-10-16T06:13:24;25.40;62.10
44433;DHT22;30136;50.600;4.608;2022-10-16T06:14:25;25.40;62.20
44433;DHT22;30136;50.600;4.608;2022-10-16T06:15:26;25.40;62.10
44433;DHT22;30136;50.600;4.608;2022-10-16T06:16:28;25.40;62.20
44433;DHT22;30136;50.600;4.608;2022-10-16T06:17:29;25.40;62.20
44433;DHT22;30136;50.600;4.608;2022-10-16T06:18:30;25.40;62.20
44433;DHT22;30136;50.600;4.608;2022-10-16T06:19:31;25.40;62.10
44433;DHT22;30136;50.600;4.608;2022-10-16T06:20:32;25.40;62.30
44433;DHT22;30136;50.600;4.608;2022-10-16T06:21:33;25.40;62.10
44433;DHT22;30136;50.600;4.608;2022-10-16T06:22:34;25.40;62.00
44433;DHT22;30136;50.600;4.608;2022-10-16T06:23:35;25.50;62.10
44433;DHT22;30136;50.600;4.608;2022-10-16T06:24:36;25.50;62.10
44433;DHT22;30136;50.600;4.608;2022-10-16T06:25:37;25.40;62.10
44433;DHT22;30136;50.600;4.608;2022-10-16T06:26:38;25.50;62.20
44433;DHT22;30136;50.600;4.608;2022-10-16T06:27:42;25.50;62.20
44433;DHT22;30136;50.600;4.608;2022-10-16T06:28:43;25.40;62.10
44433;DHT22;30136;50.600;4.608;2022-10-16T06:29:44;25.40;62.00
44433;DHT22;30136;50.600;4.608;2022-10-16T06:30:45;25.40;62.00
44433;DHT22;30136;50.600;4.608;2022-10-16T06:31:46;25.40;62.10
44433;DHT22;30136;50.600;4.608;2022-10-16T06:32:47;25.40;62.10
44433;DHT22;30136;50.600;4.608;2022-10-16T06:33:50;25.40;62.00
44433;DHT22;30136;50.600;4.608;2022-10-16T06:34:51;25.40;62.00
44433;DHT22;30136;50.600;4.608;2022-10-16T06:35:52;25.40;62.00
44433;DHT22;30136;50.600;4.608;2022-10-16T06:36:53;25.40;62.00
44433;DHT22;30136;50.600;4.608;2022-10-16T06:37:54;25.40;62.00
44433;DHT22;30136;50.600;4.608;2022-10-16T06:38:55;25.40;62.00
44433;DHT22;30136;50.600;4.608;2022-10-16T06:39:56;25.40;62.00
44433;DHT22;30136;50.600;4.608;2022-10-16T06:40:58;25.40;62.00
44433;DHT22;30136;50.600;4.608;2022-10-16T06:41:59;25.40;62.00
44433;DHT22;30136;50.600;4.608;2022-10-16T06:43:07;25.40;62.00
44433;DHT22;30136;50.600;4.608;2022-10-16T06:44:08;25.40;62.10
44433;DHT22;30136;50.600;4.608;2022-10-16T06:45:09;25.40;62.10
44433;DHT22;30136;50.600;4.608;2022-10-16T06:46:12;25.40;62.10
44433;DHT22;30136;50.600;4.608;2022-10-16T06:47:14;25.40;62.10
44433;DHT22;30136;50.600;4.608;2022-10-16T06:48:15;25.40;62.20
44433;DHT22;30136;50.600;4.608;2022-10-16T06:49:16;25.40;62.10
44433;DHT22;30136;50.600;4.608;2022-10-16T06:50:21;25.40;62.30
44433;DHT22;30136;50.600;4.608;2022-10-16T06:51:24;25.40;62.20
44433;DHT22;30136;50.600;4.608;2022-10-16T06:52:28;25.40;62.30
44433;DHT22;30136;50.600;4.608;2022-10-16T06:53:31;25.40;62.30